sensor_id;sensor_type;location;lat;lon;timestamp;P1;durP1;ratioP1;P2;durP2;ratioP2
635;SDS011;302;50.206;8.196;2024-01-30T00:00:08;12.57;;;11.05;;
635;SDS011;302;50.206;8.196;2024-01-30T00:02:53;12.63;;;10.68;;
635;SDS011;302;50.206;8.196;2024-01-30T00:05:36;13.93;;;12.52;;
635;SDS011;302;50.206;8.196;2024-01-30T00:08:20;11.80;;;10.70;;
635;SDS011;302;50.206;8.196;2024-01-30T00:11:04;12.65;;;10.45;;
635;SDS011;302;50.206;8.196;2024-01-30T00:13:49;12.25;;;11.00;;
635;SDS011;302;50.206;8.196;2024-01-30T00:16:33;11.45;;;10.27;;
635;SDS011;302;50.206;8.196;2024-01-30T00:19:17;12.90;;;10.60;;
635;SDS011;302;50.206;8.196;2024-01-30T00:22:01;14.20;;;11.05;;
635;SDS011;302;50.206;8.196;2024-01-30T00:24:44;12.20;;;10.90;;
635;SDS011;302;50.206;8.196;2024-01-30T00:27:28;11.43;;;10.10;;
635;SDS011;302;50.206;8.196;2024-01-30T00:30:13;10.75;;;9.63;;
635;SDS011;302;50.206;8.196;2024-01-30T00:32:57;11.00;;;9.98;;
635;SDS011;302;50.206;8.196;2024-01-30T00:35:41;10.38;;;9.27;;
635;SDS011;302;50.206;8.196;2024-01-30T00:38:25;10.98;;;9.50;;
635;SDS011;302;50.206;8.196;2024-01-30T00:41:09;12.43;;;9.90;;
635;SDS011;302;50.206;8.196;2024-01-30T00:43:53;12.02;;;10.25;;
635;SDS011;302;50.206;8.196;2024-01-30T00:46:37;12.95;;;10.50;;
635;SDS011;302;50.206;8.196;2024-01-30T00:49:21;13.15;;;11.63;;
635;SDS011;302;50.206;8.196;2024-01-30T00:52:05;12.50;;;10.68;;
635;SDS011;302;50.206;8.196;2024-01-30T00:54:49;15.50;;;12.02;;
635;SDS011;302;50.206;8.196;2024-01-30T00:57:33;12.38;;;10.38;;
635;SDS011;302;50.206;8.196;2024-01-30T01:00:17;12.90;;;10.93;;
635;SDS011;302;50.206;8.196;2024-01-30T01:03:01;11.50;;;10.35;;
635;SDS011;302;50.206;8.196;2024-01-30T01:05:45;10.90;;;9.75;;
635;SDS011;302;50.206;8.196;2024-01-30T01:08:29;9.98;;;9.07;;
635;SDS011;302;50.206;8.196;2024-01-30T01:11:13;11.38;;;10.02;;
635;SDS011;302;50.206;8.196;2024-01-30T01:13:57;9.70;;;8.65;;
635;SDS011;302;50.206;8.196;2024-01-30T01:16:41;9.57;;;8.35;;
635;SDS011;302;50.206;8.196;2024-01-30T01:19:25;9.98;;;9.07;;
635;SDS011;302;50.206;8.196;2024-01-30T01:22:08;12.52;;;8.75;;
635;SDS011;302;50.206;8.196;2024-01-30T01:24:52;9.65;;;8.65;;
635;SDS011;302;50.206;8.196;2024-01-30T01:27:37;9.73;;;8.32;;
635;SDS011;302;50.206;8.196;2024-01-30T01:30:24;11.05;;;8.20;;
635;SDS011;302;50.206;8.196;2024-01-30T01:33:09;9.70;;;8.70;;
635;SDS011;302;50.206;8.196;2024-01-30T01:35:53;10.20;;;9.30;;
635;SDS011;302;50.206;8.196;2024-01-30T01:38:37;11.00;;;8.93;;
635;SDS011;302;50.206;8.196;2024-01-30T01:41:21;10.80;;;9.70;;
635;SDS011;302;50.206;8.196;2024-01-30T01:44:05;10.93;;;9.10;;
635;SDS011;302;50.206;8.196;2024-01-30T01:46:49;13.38;;;10.32;;
635;SDS011;302;50.206;8.196;2024-01-30T01:49:34;11.35;;;10.02;;
635;SDS011;302;50.206;8.196;2024-01-30T01:52:18;9.90;;;8.90;;
635;SDS011;302;50.206;8.196;2024-01-30T01:55:02;14.43;;;9.70;;
635;SDS011;302;50.206;8.196;2024-01-30T01:57:46;9.70;;;8.70;;
635;SDS011;302;50.206;8.196;2024-01-30T02:00:30;10.00;;;8.27;;
635;SDS011;302;50.206;8.196;2024-01-30T02:03:14;9.68;;;8.68;;
635;SDS011;302;50.206;8.196;2024-01-30T02:06:00;9.65;;;8.75;;
635;SDS011;302;50.206;8.196;2024-01-30T02:08:45;9.48;;;8.40;;
635;SDS011;302;50.206;8.196;2024-01-30T02:11:29;10.38;;;9.35;;
635;SDS011;302;50.206;8.196;2024-01-30T02:14:13;9.18;;;8.25;;
635;SDS011;302;50.206;8.196;2024-01-30T02:16:57;9.77;;;8.60;;
635;SDS011;302;50.206;8.196;2024-01-30T02:19:41;9.10;;;7.50;;
635;SDS011;302;50.206;8.196;2024-01-30T02:22:25;9.38;;;8.35;;
635;SDS011;302;50.206;8.196;2024-01-30T02:25:09;9.23;;;8.32;;
635;SDS011;302;50.206;8.196;2024-01-30T02:27:53;9.85;;;8.48;;
635;SDS011;302;50.206;8.196;2024-01-30T02:30:37;9.90;;;8.30;;
635;SDS011;302;50.206;8.196;2024-01-30T02:33:20;10.57;;;9.48;;
635;SDS011;302;50.206;8.196;2024-01-30T02:36:08;11.00;;;9.85;;
635;SDS011;302;50.206;8.196;2024-01-30T02:38:52;9.50;;;8.60;;
635;SDS011;302;50.206;8.196;2024-01-30T02:41:36;9.90;;;8.95;;
635;SDS011;302;50.206;8.196;2024-01-30T02:44:20;9.60;;;8.05;;
635;SDS011;302;50.206;8.196;2024-01-30T02:47:04;9.25;;;8.30;;
635;SDS011;302;50.206;8.196;2024-01-30T02:49:48;8.63;;;7.22;;
635;SDS011;302;50.206;8.196;2024-01-30T02:52:32;8.90;;;8.10;;
635;SDS011;302;50.206;8.196;2024-01-30T02:55:16;9.27;;;7.70;;
635;SDS011;302;50.206;8.196;2024-01-30T02:58:03;8.23;;;7.40;;
635;SDS011;302;50.206;8.196;2024-01-30T03:00:47;10.57;;;8.82;;
635;SDS011;302;50.206;8.196;2024-01-30T03:03:31;9.43;;;8.40;;
635;SDS011;302;50.206;8.196;2024-01-30T03:06:15;9.20;;;8.30;;
635;SDS011;302;50.206;8.196;2024-01-30T03:09:01;11.23;;;10.00;;
635;SDS011;302;50.206;8.196;2024-01-30T03:11:45;10.15;;;9.15;;
635;SDS011;302;50.206;8.196;2024-01-30T03:14:30;9.77;;;8.77;;
635;SDS011;302;50.206;8.196;2024-01-30T03:17:14;10.57;;;9.15;;
635;SDS011;302;50.206;8.196;2024-01-30T03:19:58;9.88;;;8.88;;
635;SDS011;302;50.206;8.196;2024-01-30T03:22:42;11.05;;;9.48;;
635;SDS011;302;50.206;8.196;2024-01-30T03:25:26;10.85;;;9.60;;
635;SDS011;302;50.206;8.196;2024-01-30T03:28:10;9.63;;;8.65;;
635;SDS011;302;50.206;8.196;2024-01-30T03:30:54;10.77;;;8.95;;
635;SDS011;302;50.206;8.196;2024-01-30T03:33:38;10.65;;;9.32;;
635;SDS011;302;50.206;8.196;2024-01-30T03:36:21;11.35;;;8.70;;
635;SDS011;302;50.206;8.196;2024-01-30T03:39:05;11.13;;;9.60;;
635;SDS011;302;50.206;8.196;2024-01-30T03:41:50;10.20;;;8.52;;
635;SDS011;302;50.206;8.196;2024-01-30T03:44:33;9.82;;;8.82;;
635;SDS011;302;50.206;8.196;2024-01-30T03:47:17;9.15;;;8.25;;
635;SDS011;302;50.206;8.196;2024-01-30T03:50:01;9.63;;;8.20;;
635;SDS011;302;50.206;8.196;2024-01-30T03:52:45;10.30;;;8.68;;
635;SDS011;302;50.206;8.196;2024-01-30T03:55:29;10.68;;;8.90;;
635;SDS011;302;50.206;8.196;2024-01-30T03:58:13;11.57;;;8.85;;
635;SDS011;302;50.206;8.196;2024-01-30T04:00:57;10.88;;;9.75;;
635;SDS011;302;50.206;8.196;2024-01-30T04:03:41;11.10;;;8.77;;
635;SDS011;302;50.206;8.196;2024-01-30T04:06:26;9.93;;;8.93;;
635;SDS011;302;50.206;8.196;2024-01-30T04:09:09;10.98;;;8.43;;
635;SDS011;302;50.206;8.196;2024-01-30T04:11:53;12.57;;;11.00;;
635;SDS011;302;50.206;8.196;2024-01-30T04:14:38;10.77;;;9.32;;
635;SDS011;302;50.206;8.196;2024-01-30T04:17:21;12.50;;;9.88;;
635;SDS011;302;50.206;8.196;2024-01-30T04:20:06;11.55;;;8.93;;
635;SDS011;302;50.206;8.196;2024-01-30T04:22:50;13.52;;;10.60;;
635;SDS011;302;50.206;8.196;2024-01-30T04:25:34;10.65;;;9.52;;
635;SDS011;302;50.206;8.196;2024-01-30T04:28:18;11.70;;;10.50;;
635;SDS011;302;50.206;8.196;2024-01-30T04:31:01;11.80;;;10.60;;
635;SDS011;302;50.206;8.196;2024-01-30T04:33:45;11.88;;;10.45;;
635;SDS011;302;50.206;8.196;2024-01-30T04:36:29;12.32;;;10.57;;
635;SDS011;302;50.206;8.196;2024-01-30T04:39:13;13.95;;;10.63;;
635;SDS011;302;50.206;8.196;2024-01-30T04:41:57;11.95;;;10.70;;
635;SDS011;302;50.206;8.196;2024-01-30T04:44:41;11.98;;;10.73;;
635;SDS011;302;50.206;8.196;2024-01-30T04:47:25;13.05;;;11.13;;
635;SDS011;302;50.206;8.196;2024-01-30T04:50:09;13.70;;;11.05;;
635;SDS011;302;50.206;8.196;2024-01-30T04:52:53;12.45;;;10.88;;
635;SDS011;302;50.206;8.196;2024-01-30T04:55:37;16.20;;;12.45;;
635;SDS011;302;50.206;8.196;2024-01-30T04:58:21;12.40;;;10.52;;
635;SDS011;302;50.206;8.196;2024-01-30T05:01:05;11.80;;;10.45;;
635;SDS011;302;50.206;8.196;2024-01-30T05:03:48;13.50;;;10.75;;
635;SDS011;302;50.206;8.196;2024-01-30T05:06:32;12.73;;;10.93;;
635;SDS011;302;50.206;8.196;2024-01-30T05:09:16;13.43;;;9.98;;
635;SDS011;302;50.206;8.196;2024-01-30T05:12:00;10.70;;;9.70;;
635;SDS011;302;50.206;8.196;2024-01-30T05:14:44;14.23;;;9.45;;
635;SDS011;302;50.206;8.196;2024-01-30T05:17:28;13.18;;;10.70;;
635;SDS011;302;50.206;8.196;2024-01-30T05:20:12;12.90;;;11.60;;
635;SDS011;302;50.206;8.196;2024-01-30T05:22:56;13.73;;;11.63;;
635;SDS011;302;50.206;8.196;2024-01-30T05:25:40;12.68;;;10.75;;
635;SDS011;302;50.206;8.196;2024-01-30T05:28:24;12.10;;;10.80;;
635;SDS011;302;50.206;8.196;2024-01-30T05:31:08;12.60;;;10.68;;
635;SDS011;302;50.206;8.196;2024-01-30T05:33:52;11.38;;;10.00;;
635;SDS011;302;50.206;8.196;2024-01-30T05:36:36;11.45;;;10.25;;
635;SDS011;302;50.206;8.196;2024-01-30T05:39:20;13.07;;;10.27;;
635;SDS011;302;50.206;8.196;2024-01-30T05:42:04;15.07;;;9.65;;
635;SDS011;302;50.206;8.196;2024-01-30T05:44:48;11.38;;;10.10;;
635;SDS011;302;50.206;8.196;2024-01-30T05:47:32;12.90;;;11.05;;
635;SDS011;302;50.206;8.196;2024-01-30T05:50:16;14.40;;;10.93;;
635;SDS011;302;50.206;8.196;2024-01-30T05:53:00;12.38;;;10.88;;
635;SDS011;302;50.206;8.196;2024-01-30T05:55:44;13.07;;;11.20;;
635;SDS011;302;50.206;8.196;2024-01-30T05:58:28;16.00;;;12.40;;
635;SDS011;302;50.206;8.196;2024-01-30T06:01:12;14.00;;;11.95;;
635;SDS011;302;50.206;8.196;2024-01-30T06:03:56;13.00;;;11.55;;
635;SDS011;302;50.206;8.196;2024-01-30T06:06:40;13.32;;;10.95;;
635;SDS011;302;50.206;8.196;2024-01-30T06:09:23;13.13;;;11.40;;
635;SDS011;302;50.206;8.196;2024-01-30T06:12:07;13.07;;;11.32;;
635;SDS011;302;50.206;8.196;2024-01-30T06:14:51;13.45;;;10.85;;
635;SDS011;302;50.206;8.196;2024-01-30T06:17:38;12.85;;;11.15;;
635;SDS011;302;50.206;8.196;2024-01-30T06:20:21;14.45;;;12.43;;
635;SDS011;302;50.206;8.196;2024-01-30T06:23:05;17.25;;;12.82;;
635;SDS011;302;50.206;8.196;2024-01-30T06:25:49;13.68;;;11.70;;
635;SDS011;302;50.206;8.196;2024-01-30T06:28:33;12.38;;;11.07;;
635;SDS011;302;50.206;8.196;2024-01-30T06:31:17;14.98;;;11.80;;
635;SDS011;302;50.206;8.196;2024-01-30T06:34:01;14.50;;;12.13;;
635;SDS011;302;50.206;8.196;2024-01-30T06:36:46;12.55;;;11.32;;
635;SDS011;302;50.206;8.196;2024-01-30T06:39:29;12.63;;;10.65;;
635;SDS011;302;50.206;8.196;2024-01-30T06:42:13;14.27;;;12.10;;
635;SDS011;302;50.206;8.196;2024-01-30T06:44:57;11.35;;;10.15;;
635;SDS011;302;50.206;8.196;2024-01-30T06:47:41;13.50;;;10.70;;
635;SDS011;302;50.206;8.196;2024-01-30T06:50:25;13.45;;;12.05;;
635;SDS011;302;50.206;8.196;2024-01-30T06:53:09;15.60;;;12.80;;
635;SDS011;302;50.206;8.196;2024-01-30T06:55:53;15.80;;;13.35;;
635;SDS011;302;50.206;8.196;2024-01-30T06:58:37;14.43;;;11.95;;
635;SDS011;302;50.206;8.196;2024-01-30T07:01:27;14.38;;;12.48;;
635;SDS011;302;50.206;8.196;2024-01-30T07:04:10;14.60;;;13.00;;
635;SDS011;302;50.206;8.196;2024-01-30T07:06:54;11.93;;;10.73;;
635;SDS011;302;50.206;8.196;2024-01-30T07:09:38;14.07;;;12.48;;
635;SDS011;302;50.206;8.196;2024-01-30T07:12:23;15.35;;;13.60;;
635;SDS011;302;50.206;8.196;2024-01-30T07:15:08;15.13;;;13.63;;
635;SDS011;302;50.206;8.196;2024-01-30T07:17:52;14.30;;;12.88;;
635;SDS011;302;50.206;8.196;2024-01-30T07:20:36;15.20;;;12.80;;
635;SDS011;302;50.206;8.196;2024-01-30T07:23:20;15.70;;;14.13;;
635;SDS011;302;50.206;8.196;2024-01-30T07:26:04;19.38;;;13.40;;
635;SDS011;302;50.206;8.196;2024-01-30T07:28:48;14.77;;;12.85;;
635;SDS011;302;50.206;8.196;2024-01-30T07:31:33;14.27;;;12.77;;
635;SDS011;302;50.206;8.196;2024-01-30T07:34:17;17.30;;;12.65;;
635;SDS011;302;50.206;8.196;2024-01-30T07:37:01;13.90;;;12.05;;
635;SDS011;302;50.206;8.196;2024-01-30T07:39:45;14.00;;;12.63;;
635;SDS011;302;50.206;8.196;2024-01-30T07:42:29;12.65;;;11.32;;
635;SDS011;302;50.206;8.196;2024-01-30T07:45:13;12.80;;;11.50;;
635;SDS011;302;50.206;8.196;2024-01-30T07:47:57;13.30;;;11.73;;
635;SDS011;302;50.206;8.196;2024-01-30T07:50:41;13.40;;;12.10;;
635;SDS011;302;50.206;8.196;2024-01-30T07:53:25;13.00;;;11.60;;
635;SDS011;302;50.206;8.196;2024-01-30T07:56:08;12.85;;;11.57;;
635;SDS011;302;50.206;8.196;2024-01-30T07:58:52;12.60;;;11.40;;
635;SDS011;302;50.206;8.196;2024-01-30T08:01:37;14.90;;;12.32;;
635;SDS011;302;50.206;8.196;2024-01-30T08:04:20;11.80;;;10.63;;
635;SDS011;302;50.206;8.196;2024-01-30T08:07:04;12.88;;;11.65;;
635;SDS011;302;50.206;8.196;2024-01-30T08:09:48;11.50;;;10.00;;
635;SDS011;302;50.206;8.196;2024-01-30T08:12:32;16.48;;;10.90;;
635;SDS011;302;50.206;8.196;2024-01-30T08:15:16;12.05;;;10.80;;
635;SDS011;302;50.206;8.196;2024-01-30T08:18:00;11.25;;;10.15;;
635;SDS011;302;50.206;8.196;2024-01-30T08:20:44;10.85;;;9.75;;
635;SDS011;302;50.206;8.196;2024-01-30T08:23:28;13.43;;;10.48;;
635;SDS011;302;50.206;8.196;2024-01-30T08:26:12;12.50;;;10.15;;
635;SDS011;302;50.206;8.196;2024-01-30T08:28:56;11.38;;;9.32;;
635;SDS011;302;50.206;8.196;2024-01-30T08:31:40;10.40;;;9.40;;
635;SDS011;302;50.206;8.196;2024-01-30T08:34:23;9.13;;;8.23;;
635;SDS011;302;50.206;8.196;2024-01-30T08:37:07;13.23;;;10.75;;
635;SDS011;302;50.206;8.196;2024-01-30T08:39:51;11.60;;;10.40;;
635;SDS011;302;50.206;8.196;2024-01-30T08:42:36;9.90;;;8.90;;
635;SDS011;302;50.206;8.196;2024-01-30T08:45:19;10.95;;;9.75;;
635;SDS011;302;50.206;8.196;2024-01-30T08:48:03;9.52;;;8.55;;
635;SDS011;302;50.206;8.196;2024-01-30T08:50:47;8.75;;;7.95;;
635;SDS011;302;50.206;8.196;2024-01-30T08:53:31;9.05;;;7.95;;
635;SDS011;302;50.206;8.196;2024-01-30T08:56:15;9.23;;;8.40;;
635;SDS011;302;50.206;8.196;2024-01-30T08:59:00;9.32;;;8.32;;
635;SDS011;302;50.206;8.196;2024-01-30T09:01:43;9.15;;;6.80;;
635;SDS011;302;50.206;8.196;2024-01-30T09:04:27;8.82;;;8.02;;
635;SDS011;302;50.206;8.196;2024-01-30T09:07:11;8.98;;;7.55;;
635;SDS011;302;50.206;8.196;2024-01-30T09:09:56;8.18;;;7.47;;
635;SDS011;302;50.206;8.196;2024-01-30T09:12:40;8.50;;;7.60;;
635;SDS011;302;50.206;8.196;2024-01-30T09:15:24;7.95;;;7.10;;
635;SDS011;302;50.206;8.196;2024-01-30T09:18:09;7.88;;;7.18;;
635;SDS011;302;50.206;8.196;2024-01-30T09:20:53;8.00;;;7.20;;
635;SDS011;302;50.206;8.196;2024-01-30T09:23:36;8.05;;;7.25;;
635;SDS011;302;50.206;8.196;2024-01-30T09:26:20;7.82;;;7.03;;
635;SDS011;302;50.206;8.196;2024-01-30T09:29:04;9.45;;;6.88;;
635;SDS011;302;50.206;8.196;2024-01-30T09:31:49;8.55;;;7.68;;
635;SDS011;302;50.206;8.196;2024-01-30T09:34:33;8.32;;;7.47;;
635;SDS011;302;50.206;8.196;2024-01-30T09:37:16;7.85;;;7.15;;
635;SDS011;302;50.206;8.196;2024-01-30T09:40:01;8.40;;;7.13;;
635;SDS011;302;50.206;8.196;2024-01-30T09:42:46;8.10;;;7.03;;
635;SDS011;302;50.206;8.196;2024-01-30T09:45:30;8.10;;;7.28;;
635;SDS011;302;50.206;8.196;2024-01-30T09:48:16;7.90;;;6.68;;
635;SDS011;302;50.206;8.196;2024-01-30T09:50:59;8.10;;;7.40;;
635;SDS011;302;50.206;8.196;2024-01-30T09:53:43;7.13;;;6.43;;
635;SDS011;302;50.206;8.196;2024-01-30T09:56:28;7.22;;;6.55;;
635;SDS011;302;50.206;8.196;2024-01-30T09:59:12;7.20;;;6.60;;
635;SDS011;302;50.206;8.196;2024-01-30T10:01:57;7.68;;;6.97;;
635;SDS011;302;50.206;8.196;2024-01-30T10:04:41;7.57;;;6.88;;
635;SDS011;302;50.206;8.196;2024-01-30T10:07:25;7.38;;;6.50;;
635;SDS011;302;50.206;8.196;2024-01-30T10:10:09;7.45;;;6.75;;
635;SDS011;302;50.206;8.196;2024-01-30T10:12:53;9.48;;;7.00;;
635;SDS011;302;50.206;8.196;2024-01-30T10:15:37;6.97;;;6.28;;
635;SDS011;302;50.206;8.196;2024-01-30T10:18:22;7.18;;;6.50;;
635;SDS011;302;50.206;8.196;2024-01-30T10:21:07;7.70;;;6.90;;
635;SDS011;302;50.206;8.196;2024-01-30T10:23:51;8.73;;;7.85;;
635;SDS011;302;50.206;8.196;2024-01-30T10:26:37;8.38;;;7.00;;
635;SDS011;302;50.206;8.196;2024-01-30T10:29:21;7.93;;;7.13;;
635;SDS011;302;50.206;8.196;2024-01-30T10:32:05;7.55;;;6.75;;
635;SDS011;302;50.206;8.196;2024-01-30T10:34:49;10.88;;;7.47;;
635;SDS011;302;50.206;8.196;2024-01-30T10:37:33;7.93;;;7.22;;
635;SDS011;302;50.206;8.196;2024-01-30T10:40:17;8.43;;;7.63;;
635;SDS011;302;50.206;8.196;2024-01-30T10:43:05;9.38;;;7.43;;
635;SDS011;302;50.206;8.196;2024-01-30T10:45:50;8.52;;;6.65;;
635;SDS011;302;50.206;8.196;2024-01-30T10:48:35;8.63;;;7.82;;
635;SDS011;302;50.206;8.196;2024-01-30T10:51:20;8.93;;;8.05;;
635;SDS011;302;50.206;8.196;2024-01-30T10:54:06;8.13;;;7.30;;
635;SDS011;302;50.206;8.196;2024-01-30T10:56:49;7.45;;;6.75;;
635;SDS011;302;50.206;8.196;2024-01-30T10:59:33;10.40;;;7.63;;
635;SDS011;302;50.206;8.196;2024-01-30T11:02:18;8.27;;;7.45;;
635;SDS011;302;50.206;8.196;2024-01-30T11:05:04;8.35;;;7.57;;
635;SDS011;302;50.206;8.196;2024-01-30T11:07:48;7.90;;;7.20;;
635;SDS011;302;50.206;8.196;2024-01-30T11:10:32;7.88;;;7.13;;
635;SDS011;302;50.206;8.196;2024-01-30T11:13:16;8.10;;;6.78;;
635;SDS011;302;50.206;8.196;2024-01-30T11:16:00;7.55;;;6.78;;
635;SDS011;302;50.206;8.196;2024-01-30T11:18:49;8.93;;;7.00;;
635;SDS011;302;50.206;8.196;2024-01-30T11:21:33;8.70;;;7.18;;
635;SDS011;302;50.206;8.196;2024-01-30T11:24:23;8.07;;;7.28;;
635;SDS011;302;50.206;8.196;2024-01-30T11:27:08;7.32;;;6.63;;
635;SDS011;302;50.206;8.196;2024-01-30T11:29:53;7.53;;;6.82;;
635;SDS011;302;50.206;8.196;2024-01-30T11:32:37;7.75;;;7.00;;
635;SDS011;302;50.206;8.196;2024-01-30T11:35:21;9.73;;;7.50;;
635;SDS011;302;50.206;8.196;2024-01-30T11:38:06;9.68;;;8.68;;
635;SDS011;302;50.206;8.196;2024-01-30T11:40:50;11.95;;;10.27;;
635;SDS011;302;50.206;8.196;2024-01-30T11:43:35;8.20;;;7.40;;
635;SDS011;302;50.206;8.196;2024-01-30T11:46:19;8.43;;;7.65;;
635;SDS011;302;50.206;8.196;2024-01-30T11:49:02;9.15;;;7.78;;
635;SDS011;302;50.206;8.196;2024-01-30T11:51:46;7.88;;;6.82;;
635;SDS011;302;50.206;8.196;2024-01-30T11:54:32;8.52;;;7.28;;
635;SDS011;302;50.206;8.196;2024-01-30T11:57:16;8.50;;;7.57;;
635;SDS011;302;50.206;8.196;2024-01-30T12:00:00;8.02;;;7.03;;
635;SDS011;302;50.206;8.196;2024-01-30T12:02:48;8.40;;;7.60;;
635;SDS011;302;50.206;8.196;2024-01-30T12:05:32;12.35;;;6.57;;
635;SDS011;302;50.206;8.196;2024-01-30T12:08:16;8.02;;;6.47;;
635;SDS011;302;50.206;8.196;2024-01-30T12:11:00;8.00;;;7.13;;
635;SDS011;302;50.206;8.196;2024-01-30T12:13:49;7.72;;;7.03;;
635;SDS011;302;50.206;8.196;2024-01-30T12:16:33;7.30;;;6.55;;
635;SDS011;302;50.206;8.196;2024-01-30T12:19:24;7.65;;;6.95;;
635;SDS011;302;50.206;8.196;2024-01-30T12:22:08;7.72;;;6.90;;
635;SDS011;302;50.206;8.196;2024-01-30T12:24:54;6.70;;;6.10;;
635;SDS011;302;50.206;8.196;2024-01-30T12:27:38;6.28;;;5.75;;
635;SDS011;302;50.206;8.196;2024-01-30T12:30:22;7.15;;;6.45;;
635;SDS011;302;50.206;8.196;2024-01-30T12:33:06;7.93;;;7.10;;
635;SDS011;302;50.206;8.196;2024-01-30T12:35:52;7.00;;;6.30;;
635;SDS011;302;50.206;8.196;2024-01-30T12:38:36;7.28;;;6.57;;
635;SDS011;302;50.206;8.196;2024-01-30T12:41:20;7.07;;;6.45;;
635;SDS011;302;50.206;8.196;2024-01-30T12:44:04;7.47;;;6.40;;
635;SDS011;302;50.206;8.196;2024-01-30T12:46:48;6.38;;;5.60;;
635;SDS011;302;50.206;8.196;2024-01-30T12:49:31;6.18;;;5.65;;
635;SDS011;302;50.206;8.196;2024-01-30T12:52:16;6.65;;;6.03;;
635;SDS011;302;50.206;8.196;2024-01-30T12:54:59;6.90;;;6.15;;
635;SDS011;302;50.206;8.196;2024-01-30T12:57:43;8.13;;;5.95;;
635;SDS011;302;50.206;8.196;2024-01-30T13:00:27;7.30;;;6.60;;
635;SDS011;302;50.206;8.196;2024-01-30T13:03:11;8.52;;;6.15;;
635;SDS011;302;50.206;8.196;2024-01-30T13:05:55;7.43;;;5.93;;
635;SDS011;302;50.206;8.196;2024-01-30T13:08:39;8.38;;;7.05;;
635;SDS011;302;50.206;8.196;2024-01-30T13:11:23;7.32;;;5.85;;
635;SDS011;302;50.206;8.196;2024-01-30T13:14:09;7.10;;;6.22;;
635;SDS011;302;50.206;8.196;2024-01-30T13:16:53;7.00;;;6.30;;
635;SDS011;302;50.206;8.196;2024-01-30T13:19:37;6.85;;;6.25;;
635;SDS011;302;50.206;8.196;2024-01-30T13:22:21;7.00;;;6.30;;
635;SDS011;302;50.206;8.196;2024-01-30T13:25:05;6.97;;;6.00;;
635;SDS011;302;50.206;8.196;2024-01-30T13:27:49;6.07;;;5.47;;
635;SDS011;302;50.206;8.196;2024-01-30T13:30:33;7.82;;;7.03;;
635;SDS011;302;50.206;8.196;2024-01-30T13:33:17;9.68;;;6.93;;
635;SDS011;302;50.206;8.196;2024-01-30T13:36:01;7.78;;;7.00;;
635;SDS011;302;50.206;8.196;2024-01-30T13:38:45;7.40;;;6.78;;
635;SDS011;302;50.206;8.196;2024-01-30T13:41:29;9.18;;;6.88;;
635;SDS011;302;50.206;8.196;2024-01-30T13:44:13;7.97;;;6.40;;
635;SDS011;302;50.206;8.196;2024-01-30T13:46:57;7.03;;;6.35;;
635;SDS011;302;50.206;8.196;2024-01-30T13:49:41;6.63;;;5.97;;
635;SDS011;302;50.206;8.196;2024-01-30T13:52:25;7.80;;;7.00;;
635;SDS011;302;50.206;8.196;2024-01-30T13:55:11;7.70;;;6.43;;
635;SDS011;302;50.206;8.196;2024-01-30T13:57:54;7.20;;;6.60;;
635;SDS011;302;50.206;8.196;2024-01-30T14:00:39;9.02;;;7.35;;
635;SDS011;302;50.206;8.196;2024-01-30T14:03:23;8.00;;;7.20;;
635;SDS011;302;50.206;8.196;2024-01-30T14:06:07;7.13;;;6.53;;
635;SDS011;302;50.206;8.196;2024-01-30T14:08:51;6.57;;;5.97;;
635;SDS011;302;50.206;8.196;2024-01-30T14:11:34;7.10;;;6.47;;
635;SDS011;302;50.206;8.196;2024-01-30T14:14:19;8.70;;;7.47;;
635;SDS011;302;50.206;8.196;2024-01-30T14:17:02;7.43;;;6.75;;
635;SDS011;302;50.206;8.196;2024-01-30T14:19:46;7.72;;;7.00;;
635;SDS011;302;50.206;8.196;2024-01-30T14:22:31;7.55;;;6.70;;
635;SDS011;302;50.206;8.196;2024-01-30T14:25:15;8.50;;;7.70;;
635;SDS011;302;50.206;8.196;2024-01-30T14:28:00;8.10;;;7.40;;
635;SDS011;302;50.206;8.196;2024-01-30T14:30:44;9.73;;;6.95;;
635;SDS011;302;50.206;8.196;2024-01-30T14:33:27;7.78;;;7.03;;
635;SDS011;302;50.206;8.196;2024-01-30T14:36:12;8.25;;;7.45;;
635;SDS011;302;50.206;8.196;2024-01-30T14:38:55;7.68;;;6.63;;
635;SDS011;302;50.206;8.196;2024-01-30T14:41:40;10.00;;;7.88;;
635;SDS011;302;50.206;8.196;2024-01-30T14:44:24;9.45;;;8.27;;
635;SDS011;302;50.206;8.196;2024-01-30T14:47:08;8.40;;;7.30;;
635;SDS011;302;50.206;8.196;2024-01-30T14:49:52;10.70;;;7.30;;
635;SDS011;302;50.206;8.196;2024-01-30T14:52:36;10.77;;;7.22;;
635;SDS011;302;50.206;8.196;2024-01-30T14:55:20;9.80;;;8.60;;
635;SDS011;302;50.206;8.196;2024-01-30T14:58:04;9.02;;;8.23;;
635;SDS011;302;50.206;8.196;2024-01-30T15:00:48;8.07;;;7.30;;
635;SDS011;302;50.206;8.196;2024-01-30T15:03:32;9.10;;;7.53;;
635;SDS011;302;50.206;8.196;2024-01-30T15:06:17;8.63;;;7.82;;
635;SDS011;302;50.206;8.196;2024-01-30T15:09:01;8.93;;;7.93;;
635;SDS011;302;50.206;8.196;2024-01-30T15:11:45;8.60;;;7.78;;
635;SDS011;302;50.206;8.196;2024-01-30T15:14:29;10.07;;;7.70;;
635;SDS011;302;50.206;8.196;2024-01-30T15:17:12;7.45;;;6.75;;
635;SDS011;302;50.206;8.196;2024-01-30T15:19:57;8.40;;;7.53;;
635;SDS011;302;50.206;8.196;2024-01-30T15:22:41;9.50;;;8.25;;
635;SDS011;302;50.206;8.196;2024-01-30T15:25:25;8.20;;;7.40;;
635;SDS011;302;50.206;8.196;2024-01-30T15:28:09;9.70;;;8.07;;
635;SDS011;302;50.206;8.196;2024-01-30T15:30:54;10.38;;;8.30;;
635;SDS011;302;50.206;8.196;2024-01-30T15:33:37;8.63;;;7.80;;
635;SDS011;302;50.206;8.196;2024-01-30T15:36:21;8.70;;;7.82;;
635;SDS011;302;50.206;8.196;2024-01-30T15:39:05;9.10;;;8.20;;
635;SDS011;302;50.206;8.196;2024-01-30T15:41:49;10.35;;;9.45;;
635;SDS011;302;50.206;8.196;2024-01-30T15:44:33;9.10;;;8.30;;
635;SDS011;302;50.206;8.196;2024-01-30T15:47:17;8.82;;;8.02;;
635;SDS011;302;50.206;8.196;2024-01-30T15:50:01;9.95;;;8.93;;
635;SDS011;302;50.206;8.196;2024-01-30T15:52:45;11.23;;;9.85;;
635;SDS011;302;50.206;8.196;2024-01-30T15:55:29;11.07;;;10.07;;
635;SDS011;302;50.206;8.196;2024-01-30T15:58:13;12.35;;;9.20;;
635;SDS011;302;50.206;8.196;2024-01-30T16:00:58;10.82;;;9.73;;
635;SDS011;302;50.206;8.196;2024-01-30T16:03:42;9.43;;;8.63;;
635;SDS011;302;50.206;8.196;2024-01-30T16:06:28;10.07;;;9.10;;
635;SDS011;302;50.206;8.196;2024-01-30T16:09:12;10.32;;;9.02;;
635;SDS011;302;50.206;8.196;2024-01-30T16:11:58;9.63;;;8.75;;
635;SDS011;302;50.206;8.196;2024-01-30T16:14:41;10.65;;;8.65;;
635;SDS011;302;50.206;8.196;2024-01-30T16:17:25;10.80;;;8.48;;
635;SDS011;302;50.206;8.196;2024-01-30T16:20:09;9.57;;;8.68;;
635;SDS011;302;50.206;8.196;2024-01-30T16:22:53;10.40;;;9.30;;
635;SDS011;302;50.206;8.196;2024-01-30T16:25:39;10.70;;;8.50;;
635;SDS011;302;50.206;8.196;2024-01-30T16:28:24;10.32;;;8.38;;
635;SDS011;302;50.206;8.196;2024-01-30T16:31:08;9.30;;;8.45;;
635;SDS011;302;50.206;8.196;2024-01-30T16:33:53;10.55;;;9.23;;
635;SDS011;302;50.206;8.196;2024-01-30T16:36:36;10.82;;;9.70;;
635;SDS011;302;50.206;8.196;2024-01-30T16:39:20;8.93;;;8.13;;
635;SDS011;302;50.206;8.196;2024-01-30T16:42:04;9.73;;;8.75;;
635;SDS011;302;50.206;8.196;2024-01-30T16:44:50;10.10;;;9.10;;
635;SDS011;302;50.206;8.196;2024-01-30T16:47:34;9.45;;;8.65;;
635;SDS011;302;50.206;8.196;2024-01-30T16:50:18;10.30;;;9.18;;
635;SDS011;302;50.206;8.196;2024-01-30T16:53:02;10.30;;;9.18;;
635;SDS011;302;50.206;8.196;2024-01-30T16:55:46;10.80;;;9.70;;
635;SDS011;302;50.206;8.196;2024-01-30T16:58:31;10.63;;;9.63;;
635;SDS011;302;50.206;8.196;2024-01-30T17:01:14;10.93;;;9.27;;
635;SDS011;302;50.206;8.196;2024-01-30T17:03:58;10.30;;;8.57;;
635;SDS011;302;50.206;8.196;2024-01-30T17:06:42;9.70;;;8.73;;
635;SDS011;302;50.206;8.196;2024-01-30T17:09:26;10.15;;;9.18;;
635;SDS011;302;50.206;8.196;2024-01-30T17:12:10;9.07;;;8.25;;
635;SDS011;302;50.206;8.196;2024-01-30T17:14:56;9.02;;;7.90;;
635;SDS011;302;50.206;8.196;2024-01-30T17:17:40;8.98;;;7.43;;